createdAt,value
2016-11-02T00:00:30.679Z,0
2016-11-02T00:01:30.641Z,0
2016-11-02T00:02:30.600Z,0
2016-11-02T00:03:30.271Z,0
2016-11-02T00:04:29.621Z,0
2016-11-02T00:05:30.487Z,0
2016-11-02T00:06:30.455Z,0
2016-11-02T00:07:29.800Z,0
2016-11-02T00:08:30.380Z,0
2016-11-02T00:09:30.328Z,0
2016-11-02T00:10:29.989Z,0
2016-11-02T00:11:30.295Z,0
2016-11-02T00:12:30.222Z,0
2016-11-02T00:13:29.865Z,0
2016-11-02T00:14:30.136Z,0
2016-11-02T00:15:30.096Z,0
2016-11-02T00:16:30.104Z,0
2016-11-02T00:17:30.016Z,0
2016-11-02T00:18:29.671Z,0
2016-11-02T00:19:29.939Z,0
2016-11-02T00:20:29.902Z,0
2016-11-02T00:21:29.865Z,0
2016-11-02T00:22:29.825Z,0
2016-11-02T00:23:29.784Z,0
2016-11-02T00:24:29.443Z,0
2016-11-02T00:25:29.705Z,0
2016-11-02T00:26:29.672Z,0
2016-11-02T00:27:29.629Z,0
2016-11-02T00:28:29.597Z,0
2016-11-02T00:29:29.554Z,0
2016-11-02T00:30:29.515Z,0
2016-11-02T00:31:29.474Z,0
2016-11-02T00:32:29.431Z,0
2016-11-02T00:33:29.101Z,0
2016-11-02T00:34:29.376Z,0
2016-11-02T00:35:29.326Z,0
2016-11-02T00:36:29.291Z,0
2016-11-02T00:37:29.288Z,0
2016-11-02T00:38:29.213Z,0
2016-11-02T00:39:28.914Z,0
2016-11-02T00:40:29.134Z,0
2016-11-02T00:41:28.795Z,0
2016-11-02T00:42:28.756Z,0
2016-11-02T00:43:29.058Z,0
2016-11-02T00:44:28.980Z,0
2016-11-02T00:45:28.941Z,0
2016-11-02T00:46:28.937Z,0
2016-11-02T00:47:28.864Z,0
2016-11-02T00:48:28.525Z,0
2016-11-02T00:49:27.883Z,0
2016-11-02T00:50:28.143Z,0
2016-11-02T00:51:28.717Z,0
2016-11-02T00:52:28.668Z,0
2016-11-02T00:53:28.642Z,0
2016-11-02T00:54:28.594Z,0
2016-11-02T00:55:28.600Z,0
2016-11-02T00:56:28.525Z,0
2016-11-02T00:57:28.481Z,0
2016-11-02T00:58:28.444Z,0
2016-11-02T00:59:28.107Z,0
2016-11-02T01:00:28.372Z,0
2016-11-02T01:01:28.330Z,0
2016-11-02T01:02:27.992Z,0
2016-11-02T01:03:27.955Z,0
2016-11-02T01:04:28.219Z,0
2016-11-02T01:05:27.882Z,0
2016-11-02T01:06:27.846Z,0
2016-11-02T01:07:27.801Z,0
2016-11-02T01:08:27.759Z,0
2016-11-02T01:09:28.035Z,0
2016-11-02T01:10:27.995Z,0
2016-11-02T01:11:27.997Z,0
2016-11-02T01:12:27.914Z,0
2016-11-02T01:13:27.877Z,0
2016-11-02T01:14:27.543Z,0
2016-11-02T01:15:27.504Z,0
2016-11-02T01:16:27.767Z,0
2016-11-02T01:17:27.428Z,0
2016-11-02T01:18:27.384Z,0
2016-11-02T01:19:27.646Z,0
2016-11-02T01:20:27.609Z,0
2016-11-02T01:21:27.577Z,0
2016-11-02T01:22:27.569Z,0
2016-11-02T01:23:27.506Z,0
2016-11-02T01:24:27.467Z,0
2016-11-02T01:25:27.428Z,0
2016-11-02T01:26:26.782Z,0
2016-11-02T01:27:27.045Z,0
2016-11-02T01:28:26.405Z,0
2016-11-02T01:29:26.980Z,0
2016-11-02T01:30:27.233Z,0
2016-11-02T01:31:26.906Z,0
2016-11-02T01:32:27.168Z,0
2016-11-02T01:33:27.130Z,0
2016-11-02T01:34:27.127Z,0
2016-11-02T01:35:27.049Z,0
2016-11-02T01:36:27.010Z,0
2016-11-02T01:37:26.982Z,0
2016-11-02T01:38:26.639Z,0
2016-11-02T01:39:26.896Z,0
2016-11-02T01:40:26.897Z,0
2016-11-02T01:41:26.822Z,0
2016-11-02T01:42:26.788Z,0
2016-11-02T01:43:26.461Z,0
2016-11-02T01:44:26.712Z,0
2016-11-02T01:45:26.682Z,0
2016-11-02T01:46:26.339Z,0
2016-11-02T01:47:26.335Z,0
2016-11-02T01:48:26.571Z,0
2016-11-02T01:49:26.220Z,0
2016-11-02T01:50:26.486Z,0
2016-11-02T01:51:26.153Z,0
2016-11-02T01:52:26.113Z,0
2016-11-02T01:53:25.799Z,0
2016-11-02T01:54:26.338Z,0
2016-11-02T01:55:26.006Z,0
2016-11-02T01:56:26.269Z,0
2016-11-02T01:57:26.220Z,0
2016-11-02T01:58:26.195Z,0
2016-11-02T01:59:25.847Z,0
2016-11-02T02:00:26.115Z,0
2016-11-02T02:01:25.771Z,0
2016-11-02T02:02:26.037Z,0
2016-11-02T02:03:26.001Z,0
2016-11-02T02:04:25.963Z,0
2016-11-02T02:05:25.631Z,0
2016-11-02T02:06:25.892Z,0
2016-11-02T02:07:25.848Z,0
2016-11-02T02:08:25.509Z,0
2016-11-02T02:09:25.773Z,0
2016-11-02T02:10:25.138Z,0
2016-11-02T02:11:25.711Z,0
2016-11-02T02:12:25.674Z,0
2016-11-02T02:13:25.330Z,0
2016-11-02T02:14:25.592Z,0
2016-11-02T02:15:25.249Z,0
2016-11-02T02:16:25.513Z,0
2016-11-02T02:17:25.478Z,0
2016-11-02T02:18:25.449Z,0
2016-11-02T02:19:25.407Z,0
2016-11-02T02:20:25.372Z,0
2016-11-02T02:21:25.332Z,0
2016-11-02T02:22:25.286Z,0
2016-11-02T02:23:25.251Z,0
2016-11-02T02:24:25.217Z,0
2016-11-02T02:25:25.204Z,0
2016-11-02T02:26:25.146Z,0
2016-11-02T02:27:24.802Z,0
2016-11-02T02:28:25.074Z,0
2016-11-02T02:29:24.754Z,0
2016-11-02T02:30:24.987Z,0
2016-11-02T02:31:24.958Z,0
2016-11-02T02:32:24.612Z,0
2016-11-02T02:33:24.879Z,0
2016-11-02T02:34:24.537Z,0
2016-11-02T02:35:24.809Z,0
2016-11-02T02:36:24.771Z,0
2016-11-02T02:37:24.732Z,0
2016-11-02T02:38:24.083Z,0
2016-11-02T02:39:24.351Z,0
2016-11-02T02:40:24.321Z,0
2016-11-02T02:41:24.278Z,0
2016-11-02T02:42:24.243Z,0
2016-11-02T02:43:24.202Z,0
2016-11-02T02:44:24.168Z,0
2016-11-02T02:45:24.127Z,0
2016-11-02T02:46:24.391Z,0
2016-11-02T02:47:24.360Z,0
2016-11-02T02:48:24.318Z,0
2016-11-02T02:49:24.285Z,0
2016-11-02T02:50:23.943Z,0
2016-11-02T02:51:24.211Z,0
2016-11-02T02:52:24.174Z,0
2016-11-02T02:53:23.530Z,0
2016-11-02T02:54:24.092Z,0
2016-11-02T02:55:24.060Z,0
2016-11-02T02:56:23.413Z,0
2016-11-02T02:57:23.685Z,0
2016-11-02T02:58:23.948Z,0
2016-11-02T02:59:23.615Z,0
2016-11-02T03:00:23.913Z,0
2016-11-02T03:01:23.528Z,0
2016-11-02T03:02:23.802Z,0
2016-11-02T03:03:23.459Z,0
2016-11-02T03:04:23.929Z,0
2016-11-02T03:05:22.776Z,0
2016-11-02T03:06:23.642Z,0
2016-11-02T03:07:23.610Z,0
2016-11-02T03:08:23.609Z,0
2016-11-02T03:09:23.531Z,0
2016-11-02T03:10:22.893Z,0
2016-11-02T03:11:23.452Z,0
2016-11-02T03:12:23.420Z,0
2016-11-02T03:13:23.077Z,0
2016-11-02T03:14:23.348Z,0
2016-11-02T03:15:23.002Z,0
2016-11-02T03:16:23.265Z,0
2016-11-02T03:17:23.230Z,0
2016-11-02T03:18:23.188Z,0
2016-11-02T03:19:22.858Z,0
2016-11-02T03:20:22.814Z,0
2016-11-02T03:21:23.111Z,0
2016-11-02T03:22:23.039Z,0
2016-11-02T03:23:22.737Z,0
2016-11-02T03:24:22.963Z,0
2016-11-02T03:25:22.932Z,0
2016-11-02T03:26:22.889Z,0
2016-11-02T03:27:22.857Z,0
2016-11-02T03:28:22.816Z,0
2016-11-02T03:29:22.811Z,0
2016-11-02T03:30:37.344Z,0
2016-11-02T03:31:22.708Z,0
2016-11-02T03:32:22.664Z,0
2016-11-02T03:33:22.361Z,0
2016-11-02T03:34:22.596Z,0
2016-11-02T03:35:22.280Z,0
2016-11-02T03:36:22.214Z,0
2016-11-02T03:37:22.481Z,0
2016-11-02T03:38:22.442Z,0
2016-11-02T03:39:22.101Z,0
2016-11-02T03:40:22.071Z,0
2016-11-02T03:41:22.336Z,0
2016-11-02T03:42:21.991Z,0
2016-11-02T03:43:22.252Z,0
2016-11-02T03:44:22.218Z,0
2016-11-02T03:45:21.878Z,0
2016-11-02T03:46:21.534Z,0
2016-11-02T03:47:22.108Z,0
2016-11-02T03:48:22.066Z,0
2016-11-02T03:49:21.763Z,0
2016-11-02T03:50:22.032Z,0
2016-11-02T03:51:21.960Z,0
2016-11-02T03:52:21.917Z,0
2016-11-02T03:53:21.272Z,0
2016-11-02T03:54:21.842Z,0
2016-11-02T03:55:21.809Z,0
2016-11-02T03:56:21.176Z,0
2016-11-02T03:57:21.428Z,0
2016-11-02T03:58:21.388Z,0
2016-11-02T03:59:21.356Z,0
2016-11-02T04:00:21.618Z,0
2016-11-02T04:01:21.614Z,0
2016-11-02T04:02:21.543Z,0
2016-11-02T04:03:21.535Z,0
2016-11-02T04:04:21.529Z,0
2016-11-02T04:05:21.129Z,0
2016-11-02T04:06:21.098Z,0
2016-11-02T04:07:21.054Z,0
2016-11-02T04:08:21.316Z,0
2016-11-02T04:09:20.712Z,0
2016-11-02T04:10:20.944Z,0
2016-11-02T04:11:20.937Z,0
2016-11-02T04:12:20.888Z,0
2016-11-02T04:13:20.837Z,0
2016-11-02T04:14:20.798Z,0
2016-11-02T04:15:20.756Z,0
2016-11-02T04:16:21.026Z,0
2016-11-02T04:17:20.985Z,0
2016-11-02T04:18:20.955Z,0
2016-11-02T04:19:20.611Z,0
2016-11-02T04:20:20.872Z,0
2016-11-02T04:21:20.232Z,0
2016-11-02T04:22:20.801Z,0
2016-11-02T04:23:20.763Z,0
2016-11-02T04:24:20.725Z,0
2016-11-02T04:25:20.691Z,0
2016-11-02T04:26:20.649Z,0
2016-11-02T04:27:20.615Z,0
2016-11-02T04:28:20.607Z,0
2016-11-02T04:29:20.551Z,0
2016-11-02T04:30:20.500Z,0
2016-11-02T04:31:20.464Z,0
2016-11-02T04:32:20.429Z,0
2016-11-02T04:33:20.394Z,0
2016-11-02T04:34:20.047Z,0
2016-11-02T04:35:20.011Z,0
2016-11-02T04:36:19.677Z,0
2016-11-02T04:37:20.238Z,0
2016-11-02T04:38:19.898Z,0
2016-11-02T04:39:20.162Z,0
2016-11-02T04:40:20.122Z,0
2016-11-02T04:41:19.786Z,0
2016-11-02T04:42:20.056Z,0
2016-11-02T04:43:19.411Z,0
2016-11-02T04:44:19.677Z,0
2016-11-02T04:45:19.942Z,0
2016-11-02T04:46:19.899Z,0
2016-11-02T04:47:19.869Z,0
2016-11-02T04:48:19.827Z,0
2016-11-02T04:49:19.787Z,0
2016-11-02T04:50:19.446Z,0
2016-11-02T04:51:19.712Z,0
2016-11-02T04:52:19.681Z,0
2016-11-02T04:53:19.635Z,0
2016-11-02T04:54:19.298Z,0
2016-11-02T04:55:19.262Z,0
2016-11-02T04:56:19.223Z,0
2016-11-02T04:57:19.487Z,0
2016-11-02T04:58:19.454Z,0
2016-11-02T04:59:19.137Z,0
2016-11-02T05:00:19.378Z,0
2016-11-02T05:01:19.344Z,0
2016-11-02T05:02:18.998Z,0
2016-11-02T05:03:19.261Z,0
2016-11-02T05:04:19.229Z,0
2016-11-02T05:05:19.202Z,0
2016-11-02T05:06:18.543Z,0
2016-11-02T05:07:19.119Z,0
2016-11-02T05:08:19.139Z,0
2016-11-02T05:09:18.739Z,0
2016-11-02T05:10:18.996Z,0
2016-11-02T05:11:18.659Z,0
2016-11-02T05:12:18.621Z,0
2016-11-02T05:13:18.585Z,0
2016-11-02T05:14:18.851Z,0
2016-11-02T05:15:18.813Z,0
2016-11-02T05:16:18.502Z,0
2016-11-02T05:17:18.432Z,0
2016-11-02T05:18:18.423Z,0
2016-11-02T05:19:18.368Z,0
2016-11-02T05:20:18.053Z,0
2016-11-02T05:21:18.281Z,0
2016-11-02T05:22:18.240Z,0
2016-11-02T05:23:18.513Z,0
2016-11-02T05:24:18.477Z,0
2016-11-02T05:25:18.432Z,0
2016-11-02T05:26:18.399Z,0
2016-11-02T05:27:18.396Z,0
2016-11-02T05:28:18.020Z,0
2016-11-02T05:29:18.287Z,0
2016-11-02T05:30:18.248Z,0
2016-11-02T05:31:18.223Z,0
2016-11-02T05:32:18.178Z,0
2016-11-02T05:33:17.846Z,0
2016-11-02T05:34:18.095Z,0
2016-11-02T05:35:18.116Z,0
2016-11-02T05:36:18.062Z,0
2016-11-02T05:37:17.685Z,0
2016-11-02T05:38:17.945Z,0
2016-11-02T05:39:17.909Z,0
2016-11-02T05:40:17.570Z,4
2016-11-02T05:41:17.840Z,4
2016-11-02T05:42:17.189Z,4
2016-11-02T05:43:17.762Z,0
2016-11-02T05:44:17.716Z,4
2016-11-02T05:45:17.384Z,4
2016-11-02T05:46:17.650Z,4
2016-11-02T05:47:17.609Z,4
2016-11-02T05:48:17.569Z,4
2016-11-02T05:49:17.542Z,8
2016-11-02T05:50:17.496Z,8
2016-11-02T05:51:17.458Z,8
2016-11-02T05:52:17.117Z,12
2016-11-02T05:53:17.389Z,12
2016-11-02T05:54:17.351Z,12
2016-11-02T05:55:17.342Z,16
2016-11-02T05:56:17.273Z,16
2016-11-02T05:57:16.931Z,20
2016-11-02T05:58:16.590Z,28
2016-11-02T05:59:17.165Z,32
2016-11-02T06:00:17.125Z,36
2016-11-02T06:01:16.484Z,40
2016-11-02T06:02:17.077Z,44
2016-11-02T06:03:17.017Z,48
2016-11-02T06:04:16.669Z,56
2016-11-02T06:05:16.627Z,64
2016-11-02T06:06:16.892Z,68
2016-11-02T06:07:16.858Z,76
2016-11-02T06:08:16.827Z,80
2016-11-02T06:09:16.786Z,76
2016-11-02T06:10:16.446Z,80
2016-11-02T06:11:16.414Z,88
2016-11-02T06:12:16.377Z,104
2016-11-02T06:13:16.652Z,112
2016-11-02T06:14:16.700Z,124
2016-11-02T06:15:16.567Z,128
2016-11-02T06:16:15.955Z,144
2016-11-02T06:17:16.483Z,184
2016-11-02T06:18:16.152Z,244
2016-11-02T06:19:16.106Z,276
2016-11-02T06:20:16.070Z,328
2016-11-02T06:21:16.372Z,336
2016-11-02T06:22:15.997Z,436
2016-11-02T06:23:16.278Z,520
2016-11-02T06:24:16.235Z,492
2016-11-02T06:25:15.888Z,544
2016-11-02T06:26:16.155Z,632
2016-11-02T06:27:15.844Z,736
2016-11-02T06:28:16.077Z,580
2016-11-02T06:29:16.041Z,480
2016-11-02T06:30:16.001Z,720
2016-11-02T06:31:15.671Z,548
2016-11-02T06:32:15.931Z,584
2016-11-02T06:33:15.891Z,660
2016-11-02T06:34:15.550Z,644
2016-11-02T06:35:15.819Z,616
2016-11-02T06:36:15.781Z,656
2016-11-02T06:37:15.438Z,748
2016-11-02T06:38:15.707Z,676
2016-11-02T06:39:15.670Z,688
2016-11-02T06:40:15.632Z,764
2016-11-02T06:41:15.609Z,824
2016-11-02T06:42:15.560Z,620
2016-11-02T06:43:15.519Z,980
2016-11-02T06:44:15.482Z,1004
2016-11-02T06:45:15.452Z,1208
2016-11-02T06:46:15.406Z,1124
2016-11-02T06:47:15.373Z,1284
2016-11-02T06:48:15.336Z,1240
2016-11-02T06:49:14.994Z,1344
2016-11-02T06:50:14.961Z,1676
2016-11-02T06:51:14.920Z,1660
2016-11-02T06:52:15.182Z,1300
2016-11-02T06:53:15.156Z,1300
2016-11-02T06:54:15.113Z,1472
2016-11-02T06:55:15.074Z,1764
2016-11-02T06:56:15.038Z,1848
2016-11-02T06:57:14.999Z,1596
2016-11-02T06:58:14.973Z,1308
2016-11-02T06:59:14.927Z,1308
2016-11-02T07:00:14.591Z,1524
2016-11-02T07:01:14.892Z,1588
2016-11-02T07:02:14.825Z,900
2016-11-02T07:03:14.781Z,764
2016-11-02T07:04:14.767Z,744
2016-11-02T07:05:14.709Z,956
2016-11-02T07:06:14.372Z,1292
2016-11-02T07:07:14.636Z,1436
2016-11-02T07:08:14.297Z,1732
2016-11-02T07:09:14.577Z,2168
2016-11-02T07:10:14.520Z,2544
2016-11-02T07:11:14.196Z,2592
2016-11-02T07:12:14.148Z,2712
2016-11-02T07:13:14.423Z,2800
2016-11-02T07:14:14.087Z,2748
2016-11-02T07:15:14.343Z,3340
2016-11-02T07:16:14.306Z,3808
2016-11-02T07:17:14.321Z,3476
2016-11-02T07:18:13.931Z,3536
2016-11-02T07:19:13.898Z,4272
2016-11-02T07:20:14.156Z,4968
2016-11-02T07:21:14.126Z,5624
2016-11-02T07:22:14.092Z,5148
2016-11-02T07:23:13.751Z,5940
2016-11-02T07:24:14.017Z,6544
2016-11-02T07:25:13.982Z,6432
2016-11-02T07:26:13.946Z,6256
2016-11-02T07:27:13.945Z,7104
2016-11-02T07:28:13.877Z,5820
2016-11-02T07:29:13.832Z,5964
2016-11-02T07:30:13.801Z,6408
2016-11-02T07:31:13.158Z,6532
2016-11-02T07:32:13.725Z,6520
2016-11-02T07:33:13.420Z,6240
2016-11-02T07:34:13.663Z,6988
2016-11-02T07:35:13.320Z,6516
2016-11-02T07:36:13.575Z,6108
2016-11-02T07:37:13.540Z,5384
2016-11-02T07:38:13.195Z,5276
2016-11-02T07:39:13.457Z,5744
2016-11-02T07:40:13.444Z,6256
2016-11-02T07:41:13.388Z,5408
2016-11-02T07:42:13.057Z,5380
2016-11-02T07:43:12.710Z,7160
2016-11-02T07:44:12.984Z,8444
2016-11-02T07:45:12.954Z,9240
2016-11-02T07:46:12.902Z,8568
2016-11-02T07:47:13.188Z,9148
2016-11-02T07:48:13.145Z,16416
2016-11-02T07:49:12.802Z,17344
2016-11-02T07:50:12.759Z,33056
2016-11-02T07:51:12.420Z,32160
2016-11-02T07:52:13.001Z,34048
2016-11-02T07:53:12.953Z,32928
2016-11-02T07:54:12.614Z,33408
2016-11-02T07:55:12.595Z,15412
2016-11-02T07:56:12.901Z,16192
2016-11-02T07:57:12.510Z,20576
2016-11-02T07:58:12.792Z,27936
2016-11-02T07:59:12.446Z,18144
2016-11-02T08:00:12.729Z,21504
2016-11-02T08:01:12.381Z,40416
2016-11-02T08:02:12.039Z,35136
2016-11-02T08:03:12.633Z,33024
2016-11-02T08:04:12.584Z,33312
2016-11-02T08:05:12.256Z,13268
2016-11-02T08:06:12.521Z,20480
2016-11-02T08:07:12.181Z,12208
2016-11-02T08:08:12.449Z,14336
2016-11-02T08:09:12.121Z,32864
2016-11-02T08:10:12.091Z,17216
2016-11-02T08:11:12.357Z,20192
2016-11-02T08:12:12.325Z,29632
2016-11-02T08:13:12.318Z,34208
2016-11-02T08:14:11.967Z,30048
2016-11-02T08:15:11.940Z,17344
2016-11-02T08:16:11.904Z,16832
2016-11-02T08:17:12.178Z,31072
2016-11-02T08:18:12.147Z,18848
2016-11-02T08:19:12.119Z,22144
2016-11-02T08:20:12.088Z,29024
2016-11-02T08:21:11.756Z,22400
2016-11-02T08:22:11.727Z,17600
2016-11-02T08:23:11.696Z,33344
2016-11-02T08:24:11.673Z,19424
2016-11-02T08:25:11.637Z,19712
2016-11-02T08:26:11.933Z,15584
2016-11-02T08:27:11.882Z,16896
2016-11-02T08:28:11.553Z,20096
2016-11-02T08:29:11.837Z,17888
2016-11-02T08:30:11.492Z,17376
2016-11-02T08:31:11.516Z,52320
2016-11-02T08:32:11.134Z,42080
2016-11-02T08:33:11.703Z,28448
2016-11-02T08:34:11.379Z,36064
2016-11-02T08:35:11.646Z,13972
2016-11-02T08:36:11.323Z,13476
2016-11-02T08:37:11.288Z,14388
2016-11-02T08:38:11.616Z,13564
2016-11-02T08:39:11.231Z,13136
2016-11-02T08:40:11.205Z,17344
2016-11-02T08:41:11.474Z,17632
2016-11-02T08:42:11.140Z,14380
2016-11-02T08:43:11.118Z,11912
2016-11-02T08:44:11.384Z,10840
2016-11-02T08:45:11.363Z,11148
2016-11-02T08:46:11.032Z,12028
2016-11-02T08:47:11.003Z,15856
2016-11-02T08:48:10.977Z,29536
2016-11-02T08:49:11.246Z,25760
2016-11-02T08:50:10.610Z,49440
2016-11-02T08:51:11.184Z,41536
2016-11-02T08:52:10.855Z,44576
2016-11-02T08:53:11.129Z,37312
2016-11-02T08:54:11.094Z,44032
2016-11-02T08:55:10.778Z,27840
2016-11-02T08:56:10.733Z,24576
2016-11-02T08:57:10.415Z,25664
2016-11-02T08:58:10.981Z,31008
2016-11-02T08:59:10.959Z,26144
2016-11-02T09:00:10.629Z,44864
2016-11-02T09:01:10.598Z,29952
2016-11-02T09:02:10.575Z,33248
2016-11-02T09:03:10.841Z,19552
2016-11-02T09:04:10.215Z,18784
2016-11-02T09:05:10.788Z,17088
2016-11-02T09:06:10.457Z,15972
2016-11-02T09:07:10.127Z,16040
2016-11-02T09:08:10.101Z,17600
2016-11-02T09:09:10.376Z,16960
2016-11-02T09:10:10.645Z,16672
2016-11-02T09:11:10.320Z,16116
2016-11-02T09:12:10.334Z,15988
2016-11-02T09:13:09.962Z,16324
2016-11-02T09:14:10.232Z,16100
2016-11-02T09:15:10.218Z,15440
2016-11-02T09:16:10.488Z,14924
2016-11-02T09:17:09.851Z,14612
2016-11-02T09:18:10.421Z,14744
2016-11-02T09:19:09.800Z,14972
2016-11-02T09:20:10.059Z,14328
2016-11-02T09:21:10.037Z,13448
2016-11-02T09:22:10.309Z,12780
2016-11-02T09:23:10.273Z,12976
2016-11-02T09:24:09.948Z,12692
2016-11-02T09:25:09.911Z,12856
2016-11-02T09:26:10.224Z,13220
2016-11-02T09:27:10.168Z,13024
2016-11-02T09:28:10.189Z,12760
2016-11-02T09:29:10.097Z,13080
2016-11-02T09:30:09.759Z,13764
2016-11-02T09:31:09.732Z,13696
2016-11-02T09:32:10.007Z,13768
2016-11-02T09:33:09.367Z,13004
2016-11-02T09:34:09.639Z,13132
2016-11-02T09:35:09.913Z,13892
2016-11-02T09:36:09.892Z,14776
2016-11-02T09:37:09.890Z,15292
2016-11-02T09:38:09.224Z,15460
2016-11-02T09:39:09.487Z,15808
2016-11-02T09:40:09.464Z,17184
2016-11-02T09:41:09.424Z,17632
2016-11-02T09:42:09.391Z,17248
2016-11-02T09:43:09.708Z,16960
2016-11-02T09:44:09.345Z,17280
2016-11-02T09:45:09.306Z,17184
2016-11-02T09:46:09.282Z,25408
2016-11-02T09:47:09.549Z,20896
2016-11-02T09:48:09.209Z,22560
2016-11-02T09:49:09.182Z,20640
2016-11-02T09:50:09.150Z,20000
2016-11-02T09:51:08.815Z,20000
2016-11-02T09:52:09.387Z,19488
2016-11-02T09:53:08.748Z,19296
2016-11-02T09:54:09.019Z,16960
2016-11-02T09:55:08.994Z,19552
2016-11-02T09:56:08.957Z,18816
2016-11-02T09:57:09.267Z,19776
2016-11-02T09:58:09.218Z,21056
2016-11-02T09:59:09.173Z,19040
2016-11-02T10:00:09.143Z,19040
2016-11-02T10:01:09.112Z,30112
2016-11-02T10:02:08.783Z,25088
2016-11-02T10:03:08.750Z,24800
2016-11-02T10:04:08.719Z,30752
2016-11-02T10:05:08.692Z,36192
2016-11-02T10:06:08.961Z,35808
2016-11-02T10:07:08.929Z,30528
2016-11-02T10:08:08.599Z,23264
2016-11-02T10:09:08.572Z,17888
2016-11-02T10:10:08.843Z,19072
2016-11-02T10:11:08.820Z,16000
2016-11-02T10:12:08.788Z,17312
2016-11-02T10:13:08.468Z,16896
2016-11-02T10:14:08.132Z,18464
2016-11-02T10:15:08.703Z,22496
2016-11-02T10:16:08.680Z,19712
2016-11-02T10:17:08.651Z,21504
2016-11-02T10:18:08.365Z,18720
2016-11-02T10:19:08.338Z,18240
2016-11-02T10:20:08.312Z,18400
2016-11-02T10:21:08.278Z,19200
2016-11-02T10:22:08.211Z,19008
2016-11-02T10:23:08.189Z,19200
2016-11-02T10:24:08.155Z,21952
2016-11-02T10:25:07.827Z,30496
2016-11-02T10:26:08.416Z,26752
2016-11-02T10:27:08.069Z,32672
2016-11-02T10:28:08.347Z,41856
2016-11-02T10:29:08.320Z,37408
2016-11-02T10:30:08.291Z,36896
2016-11-02T10:31:08.269Z,45920
2016-11-02T10:32:08.231Z,66176
2016-11-02T10:33:08.207Z,64704
2016-11-02T10:34:07.885Z,23840
2016-11-02T10:35:08.151Z,26688
2016-11-02T10:36:07.829Z,35168
2016-11-02T10:37:08.103Z,24704
2016-11-02T10:38:08.069Z,22848
2016-11-02T10:39:07.744Z,51840
2016-11-02T10:40:08.023Z,27072
2016-11-02T10:41:07.693Z,22336
2016-11-02T10:42:07.978Z,42624
2016-11-02T10:43:07.642Z,22048
2016-11-02T10:44:07.611Z,45568
2016-11-02T10:45:07.284Z,28576
2016-11-02T10:46:07.850Z,21600
2016-11-02T10:47:07.832Z,44576
2016-11-02T10:48:07.805Z,20000
2016-11-02T10:49:07.770Z,32256
2016-11-02T10:50:07.749Z,28416
2016-11-02T10:51:07.725Z,24832
2016-11-02T10:52:07.399Z,21664
2016-11-02T10:53:07.670Z,29184
2016-11-02T10:54:07.036Z,26400
2016-11-02T10:55:07.659Z,18240
2016-11-02T10:56:06.925Z,16308
2016-11-02T10:57:07.562Z,14620
2016-11-02T10:58:07.233Z,16960
2016-11-02T10:59:06.902Z,14316
2016-11-02T11:00:07.169Z,11836
2016-11-02T11:01:07.159Z,12912
2016-11-02T11:02:07.117Z,13936
2016-11-02T11:03:07.093Z,12628
2016-11-02T11:04:07.072Z,11008
2016-11-02T11:05:07.339Z,10228
2016-11-02T11:06:06.742Z,10556
2016-11-02T11:07:06.986Z,10928
2016-11-02T11:08:06.952Z,10460
2016-11-02T11:09:07.225Z,10192
2016-11-02T11:10:06.913Z,9488
2016-11-02T11:11:07.167Z,9776
2016-11-02T11:12:07.147Z,10260
2016-11-02T11:13:07.112Z,8428
2016-11-02T11:14:07.090Z,8292
2016-11-02T11:15:07.057Z,8704
2016-11-02T11:16:07.021Z,13200
2016-11-02T11:17:06.708Z,10184
2016-11-02T11:18:06.968Z,12032
2016-11-02T11:19:06.334Z,12716
2016-11-02T11:20:06.304Z,12316
2016-11-02T11:21:06.655Z,11140
2016-11-02T11:22:06.548Z,11560
2016-11-02T11:23:06.854Z,11080
2016-11-02T11:24:06.789Z,12136
2016-11-02T11:25:06.470Z,13628
2016-11-02T11:26:06.731Z,12620
2016-11-02T11:27:05.794Z,11440
2016-11-02T11:28:06.066Z,11932
2016-11-02T11:29:06.345Z,11640
2016-11-02T11:30:06.308Z,10472
2016-11-02T11:31:05.973Z,11064
2016-11-02T11:32:06.550Z,12500
2016-11-02T11:33:06.547Z,10060
2016-11-02T11:34:05.885Z,9492
2016-11-02T11:35:06.468Z,14076
2016-11-02T11:36:06.129Z,15432
2016-11-02T11:37:06.091Z,12496
2016-11-02T11:38:06.076Z,13800
2016-11-02T11:39:06.045Z,13200
2016-11-02T11:40:06.009Z,12680
2016-11-02T11:41:05.989Z,11788
2016-11-02T11:42:05.947Z,11028
2016-11-02T11:43:05.953Z,10932
2016-11-02T11:44:06.182Z,11272
2016-11-02T11:45:05.894Z,10888
2016-11-02T11:46:05.822Z,10012
2016-11-02T11:47:05.484Z,10324
2016-11-02T11:48:05.763Z,10824
2016-11-02T11:49:06.030Z,10080
2016-11-02T11:50:05.394Z,9176
2016-11-02T11:51:05.971Z,9036
2016-11-02T11:52:05.637Z,9196
2016-11-02T11:53:05.310Z,8812
2016-11-02T11:54:05.581Z,9060
2016-11-02T11:55:05.544Z,10452
2016-11-02T11:56:05.516Z,10656
2016-11-02T11:57:05.786Z,10712
2016-11-02T11:58:05.755Z,11616
2016-11-02T11:59:05.420Z,11596
2016-11-02T12:00:05.692Z,10788
2016-11-02T12:01:05.057Z,9768
2016-11-02T12:02:05.325Z,9788
2016-11-02T12:03:05.292Z,9848
2016-11-02T12:04:04.963Z,9620
2016-11-02T12:05:04.934Z,9996
2016-11-02T12:06:05.506Z,9604
2016-11-02T12:07:05.172Z,8812
2016-11-02T12:08:05.443Z,8308
2016-11-02T12:09:05.412Z,7820
2016-11-02T12:10:05.073Z,7560
2016-11-02T12:11:05.042Z,7440
2016-11-02T12:12:05.015Z,6928
2016-11-02T12:13:04.681Z,6260
2016-11-02T12:14:05.254Z,5576
2016-11-02T12:15:04.919Z,5124
2016-11-02T12:16:04.900Z,4892
2016-11-02T12:17:05.154Z,4960
2016-11-02T12:18:05.123Z,5484
2016-11-02T12:19:04.794Z,6048
2016-11-02T12:20:04.764Z,6460
2016-11-02T12:21:04.737Z,6392
2016-11-02T12:22:04.695Z,6884
2016-11-02T12:23:04.965Z,7596
2016-11-02T12:24:04.029Z,7520
2016-11-02T12:25:04.903Z,7384
2016-11-02T12:26:04.572Z,7304
2016-11-02T12:27:04.838Z,7208
2016-11-02T12:28:04.806Z,7184
2016-11-02T12:29:04.471Z,7064
2016-11-02T12:30:04.447Z,6584
2016-11-02T12:31:04.713Z,7272
2016-11-02T12:32:04.688Z,7000
2016-11-02T12:33:04.644Z,6776
2016-11-02T12:34:04.617Z,7124
2016-11-02T12:35:04.585Z,6752
2016-11-02T12:36:04.252Z,6272
2016-11-02T12:37:04.218Z,5908
2016-11-02T12:38:04.492Z,5628
2016-11-02T12:39:04.155Z,5024
2016-11-02T12:40:04.121Z,4272
2016-11-02T12:41:03.830Z,3880
2016-11-02T12:42:04.361Z,3720
2016-11-02T12:43:04.327Z,3680
2016-11-02T12:44:03.988Z,3596
2016-11-02T12:45:03.966Z,3476
2016-11-02T12:46:04.232Z,3328
2016-11-02T12:47:03.906Z,3228
2016-11-02T12:48:04.170Z,2948
2016-11-02T12:49:03.836Z,2780
2016-11-02T12:50:03.492Z,2848
2016-11-02T12:51:04.076Z,3060
2016-11-02T12:52:04.030Z,3264
2016-11-02T12:53:03.999Z,3020
2016-11-02T12:54:03.974Z,2684
2016-11-02T12:55:03.633Z,2448
2016-11-02T12:56:03.635Z,2380
2016-11-02T12:57:03.264Z,2408
2016-11-02T12:58:03.540Z,2700
2016-11-02T12:59:03.807Z,3036
2016-11-02T13:00:03.769Z,3216
2016-11-02T13:01:03.737Z,2996
2016-11-02T13:02:03.413Z,2712
2016-11-02T13:03:03.671Z,2640
2016-11-02T13:04:03.044Z,2560
2016-11-02T13:05:03.308Z,2436
2016-11-02T13:06:03.565Z,2244
2016-11-02T13:07:02.937Z,2020
2016-11-02T13:08:02.900Z,1832
2016-11-02T13:09:03.171Z,1596
2016-11-02T13:10:03.137Z,1468
2016-11-02T13:11:03.107Z,1576
2016-11-02T13:12:03.070Z,1704
2016-11-02T13:13:03.347Z,1804
2016-11-02T13:14:03.333Z,1900
2016-11-02T13:15:03.273Z,1740
2016-11-02T13:16:03.239Z,1468
2016-11-02T13:17:02.903Z,1264
2016-11-02T13:18:03.175Z,1176
2016-11-02T13:19:03.130Z,1188
2016-11-02T13:20:02.805Z,1180
2016-11-02T13:21:02.770Z,1240
2016-11-02T13:22:03.032Z,1352
2016-11-02T13:23:03.005Z,1372
2016-11-02T13:24:02.663Z,1296
2016-11-02T13:25:02.628Z,1300
2016-11-02T13:26:02.894Z,1200
2016-11-02T13:27:02.559Z,1172
2016-11-02T13:28:02.828Z,1100
2016-11-02T13:29:02.190Z,1080
2016-11-02T13:30:02.753Z,1028
2016-11-02T13:31:02.426Z,884
2016-11-02T13:32:02.427Z,820
2016-11-02T13:33:02.365Z,852
2016-11-02T13:34:02.016Z,892
2016-11-02T13:35:02.292Z,1000
2016-11-02T13:36:02.253Z,1000
2016-11-02T13:37:02.223Z,912
2016-11-02T13:38:01.884Z,868
2016-11-02T13:39:02.145Z,864
2016-11-02T13:40:01.812Z,880
2016-11-02T13:41:02.077Z,924
2016-11-02T13:42:02.042Z,1000
2016-11-02T13:43:02.307Z,1100
2016-11-02T13:44:01.971Z,1080
2016-11-02T13:45:02.275Z,1060
2016-11-02T13:46:01.598Z,1080
2016-11-02T13:47:01.882Z,1048
2016-11-02T13:48:01.532Z,884